createdAt,value
2023-05-07T00:00:27.575Z,4.60
2023-05-07T00:03:31.394Z,4.27
2023-05-07T00:06:36.925Z,4.73
2023-05-07T00:09:41.119Z,4.17
2023-05-07T00:12:44.997Z,4.60
2023-05-07T00:15:48.714Z,4.77
2023-05-07T00:18:52.479Z,4.37
2023-05-07T00:21:58.148Z,4.67
2023-05-07T00:25:01.960Z,4.70
2023-05-07T00:28:05.859Z,4.80
2023-05-07T00:31:09.785Z,4.23
2023-05-07T00:34:13.591Z,4.80
2023-05-07T00:37:19.269Z,5.57
2023-05-07T00:40:23.120Z,4.40
2023-05-07T00:43:26.866Z,4.77
2023-05-07T00:46:31.590Z,4.40
2023-05-07T00:49:42.331Z,4.90
2023-05-07T00:52:47.610Z,4.67
2023-05-07T00:55:51.542Z,5.90
2023-05-07T00:58:55.622Z,5.57
2023-05-07T01:01:59.490Z,5.90
2023-05-07T01:05:04.485Z,6.40
2023-05-07T01:08:10.273Z,5.80
2023-05-07T01:11:14.721Z,6.07
2023-05-07T01:14:18.679Z,5.10
2023-05-07T01:17:22.412Z,5.40
2023-05-07T01:20:27.259Z,4.93
2023-05-07T01:23:36.866Z,5.77
2023-05-07T01:26:41.060Z,5.50
2023-05-07T01:29:45.320Z,5.10
2023-05-07T01:32:54.268Z,5.83
2023-05-07T01:35:59.740Z,5.97
2023-05-07T01:39:05.587Z,5.93
2023-05-07T01:42:09.907Z,6.37
2023-05-07T01:45:13.970Z,7.63
2023-05-07T01:48:18.345Z,10.07
2023-05-07T01:51:23.474Z,8.80
2023-05-07T01:54:30.428Z,8.87
2023-05-07T01:57:35.575Z,8.63
2023-05-07T02:00:39.591Z,8.60
2023-05-07T02:03:44.280Z,8.37
2023-05-07T02:06:56.978Z,8.43
2023-05-07T02:10:02.553Z,8.07
2023-05-07T02:13:06.387Z,6.30
2023-05-07T02:16:10.241Z,7.23
2023-05-07T02:19:15.560Z,5.97
2023-05-07T02:22:19.231Z,5.50
2023-05-07T02:25:24.530Z,5.40
2023-05-07T02:28:28.276Z,5.80
2023-05-07T02:31:36.771Z,6.13
2023-05-07T02:34:40.635Z,6.33
2023-05-07T02:37:44.259Z,5.33
2023-05-07T02:40:49.617Z,5.67
2023-05-07T02:43:53.788Z,5.97
2023-05-07T02:46:57.455Z,6.13
2023-05-07T02:50:02.062Z,5.43
2023-05-07T02:53:07.032Z,6.13
2023-05-07T02:56:12.186Z,6.23
2023-05-07T02:59:15.922Z,6.00
2023-05-07T03:02:20.227Z,5.83
2023-05-07T03:05:24.012Z,5.77
2023-05-07T03:08:27.704Z,5.90
2023-05-07T03:11:32.880Z,6.13
2023-05-07T03:14:36.449Z,6.07
2023-05-07T03:17:40.357Z,5.90
2023-05-07T03:20:44.030Z,7.60
2023-05-07T03:23:47.789Z,8.50
2023-05-07T03:26:52.886Z,7.40
2023-05-07T03:29:57.013Z,7.70
2023-05-07T03:33:01.105Z,8.50
2023-05-07T03:36:05.991Z,8.27
2023-05-07T03:39:09.769Z,7.77
2023-05-07T03:42:18.433Z,7.60
2023-05-07T03:45:25.164Z,6.97
2023-05-07T03:48:37.673Z,7.43
2023-05-07T03:51:42.146Z,7.47
2023-05-07T03:54:45.828Z,6.97
2023-05-07T03:57:54.397Z,6.70
2023-05-07T04:00:58.473Z,7.03
2023-05-07T04:04:05.687Z,8.00
2023-05-07T04:07:11.918Z,7.10
2023-05-07T04:10:19.571Z,6.97
2023-05-07T04:13:27.635Z,6.87
2023-05-07T04:16:32.260Z,7.53
2023-05-07T04:19:36.469Z,7.60
2023-05-07T04:22:40.274Z,8.60
2023-05-07T04:25:44.123Z,7.83
2023-05-07T04:29:01.712Z,8.20
2023-05-07T04:32:10.326Z,8.20
2023-05-07T04:35:17.212Z,8.13
2023-05-07T04:38:21.470Z,7.73
2023-05-07T04:41:27.985Z,8.30
2023-05-07T04:44:33.977Z,7.60
2023-05-07T04:47:37.653Z,8.17
2023-05-07T04:50:41.489Z,8.40
2023-05-07T04:53:47.299Z,8.30
2023-05-07T04:56:51.398Z,7.87
2023-05-07T04:59:57.071Z,7.90
2023-05-07T05:03:01.332Z,7.23
2023-05-07T05:06:06.824Z,7.57
2023-05-07T05:09:12.382Z,7.47
2023-05-07T05:12:17.852Z,8.17
2023-05-07T05:15:23.477Z,7.67
2023-05-07T05:18:27.561Z,7.93
2023-05-07T05:21:31.461Z,8.07
2023-05-07T05:24:41.047Z,7.87
2023-05-07T05:27:45.484Z,7.80
2023-05-07T05:30:51.513Z,7.37
2023-05-07T05:33:56.242Z,7.83
2023-05-07T05:37:01.779Z,7.53
2023-05-07T05:40:06.664Z,8.07
2023-05-07T05:43:10.775Z,7.43
2023-05-07T05:46:17.886Z,7.43
2023-05-07T05:49:21.864Z,8.57
2023-05-07T05:52:26.415Z,9.83
2023-05-07T05:55:33.611Z,8.03
2023-05-07T05:58:37.652Z,7.37
2023-05-07T06:01:45.900Z,9.07
2023-05-07T06:04:49.830Z,6.82
2023-05-07T06:07:56.694Z,6.87
2023-05-07T06:11:01.819Z,8.57
2023-05-07T06:14:09.132Z,8.00
2023-05-07T06:17:14.824Z,8.15
2023-05-07T06:20:19.162Z,7.72
2023-05-07T06:23:23.157Z,7.85
2023-05-07T06:26:27.069Z,6.97
2023-05-07T06:29:32.792Z,7.47
2023-05-07T06:32:39.652Z,8.25
2023-05-07T06:35:43.814Z,7.82
2023-05-07T06:38:47.763Z,7.57
2023-05-07T06:41:52.844Z,7.55
2023-05-07T06:45:04.544Z,7.90
2023-05-07T06:48:10.164Z,7.80
2023-05-07T06:51:23.830Z,6.95
2023-05-07T06:54:28.324Z,7.65
2023-05-07T06:57:32.503Z,6.72
2023-05-07T07:00:36.505Z,6.63
2023-05-07T07:03:41.871Z,6.43
2023-05-07T07:06:45.829Z,6.53
2023-05-07T07:09:52.837Z,6.43
2023-05-07T07:12:57.294Z,6.63
2023-05-07T07:16:02.801Z,7.10
2023-05-07T07:19:08.418Z,6.93
2023-05-07T07:22:13.074Z,7.00
2023-05-07T07:25:16.989Z,6.82
2023-05-07T07:28:23.428Z,6.45
2023-05-07T07:31:27.537Z,6.13
2023-05-07T07:34:32.920Z,6.25
2023-05-07T07:37:38.573Z,7.07
2023-05-07T07:40:42.607Z,6.72
2023-05-07T07:43:49.809Z,6.57
2023-05-07T07:46:56.830Z,6.68
2023-05-07T07:50:04.193Z,6.75
2023-05-07T07:53:08.296Z,6.15
2023-05-07T07:56:12.720Z,6.60
2023-05-07T07:59:20.058Z,7.40
2023-05-07T08:02:26.652Z,6.65
2023-05-07T08:05:32.325Z,7.55
2023-05-07T08:08:37.108Z,7.22
2023-05-07T08:11:41.329Z,7.05
2023-05-07T08:14:45.331Z,6.10
2023-05-07T08:17:49.193Z,6.32
2023-05-07T08:20:55.054Z,5.22
2023-05-07T08:24:02.451Z,6.03
2023-05-07T08:27:06.987Z,6.20
2023-05-07T08:30:12.897Z,4.55
2023-05-07T08:33:17.661Z,5.45
2023-05-07T08:36:23.037Z,4.68
2023-05-07T08:39:27.082Z,5.35
2023-05-07T08:42:33.860Z,4.95
2023-05-07T08:45:38.033Z,5.40
2023-05-07T08:48:42.335Z,4.25
2023-05-07T08:51:53.897Z,4.47
2023-05-07T08:54:58.957Z,3.95
2023-05-07T08:58:03.750Z,3.75
2023-05-07T09:01:11.987Z,3.92
2023-05-07T09:04:16.102Z,4.03
2023-05-07T09:07:24.035Z,4.13
2023-05-07T09:10:28.745Z,4.00
2023-05-07T09:13:32.769Z,4.70
2023-05-07T09:16:38.998Z,4.28
2023-05-07T09:19:42.946Z,3.50
2023-05-07T09:22:48.345Z,3.20
2023-05-07T09:26:03.176Z,3.40
2023-05-07T09:29:10.548Z,3.22
2023-05-07T09:32:14.746Z,3.20
2023-05-07T09:35:19.198Z,3.15
2023-05-07T09:38:30.144Z,2.42
2023-05-07T09:41:45.584Z,3.08
2023-05-07T09:45:02.438Z,3.60
2023-05-07T09:48:14.598Z,3.50
2023-05-07T09:51:24.744Z,3.97
2023-05-07T09:54:31.881Z,4.00
2023-05-07T09:57:37.346Z,3.22
2023-05-07T10:00:45.674Z,3.22
2023-05-07T10:03:54.247Z,3.63
2023-05-07T10:06:59.612Z,3.30
2023-05-07T10:10:07.334Z,3.63
2023-05-07T10:13:16.083Z,2.97
2023-05-07T10:16:25.338Z,3.30
2023-05-07T10:19:30.712Z,3.70
2023-05-07T10:22:41.277Z,3.50
2023-05-07T10:25:46.807Z,2.90
2023-05-07T10:29:03.854Z,3.17
2023-05-07T10:32:30.039Z,3.05
2023-05-07T10:35:38.680Z,3.55
2023-05-07T10:38:43.231Z,3.50
2023-05-07T10:41:50.477Z,3.22
2023-05-07T10:44:55.048Z,3.30
2023-05-07T10:51:28.292Z,2.50
2023-05-07T10:54:40.211Z,2.53
2023-05-07T10:57:49.724Z,2.67
2023-05-07T11:01:00.505Z,2.75
2023-05-07T11:04:16.584Z,3.03
2023-05-07T11:07:35.422Z,2.60
2023-05-07T11:10:55.328Z,2.83
2023-05-07T11:14:45.967Z,2.70
2023-05-07T11:18:10.602Z,2.90
2023-05-07T11:21:35.261Z,3.25
2023-05-07T11:25:02.764Z,2.92
2023-05-07T11:28:11.636Z,3.05
2023-05-07T11:31:27.384Z,2.75
2023-05-07T11:34:32.761Z,3.00
2023-05-07T11:37:37.290Z,2.47
2023-05-07T11:40:52.276Z,2.75
2023-05-07T11:44:01.064Z,2.80
2023-05-07T11:47:06.428Z,3.38
2023-05-07T11:50:12.230Z,3.00
2023-05-07T11:53:15.971Z,3.00
2023-05-07T11:56:21.155Z,3.00
2023-05-07T11:59:24.910Z,3.40
2023-05-07T12:02:31.017Z,2.90
2023-05-07T12:05:34.904Z,2.72
2023-05-07T12:08:40.036Z,2.88
2023-05-07T12:11:48.716Z,3.22
2023-05-07T12:14:52.481Z,2.70
2023-05-07T12:17:57.977Z,3.30
2023-05-07T12:21:02.671Z,2.72
2023-05-07T12:24:07.151Z,3.22
2023-05-07T12:27:12.136Z,2.92
2023-05-07T12:30:16.216Z,3.00
2023-05-07T12:33:26.092Z,2.80
2023-05-07T12:36:39.696Z,2.80
2023-05-07T12:39:47.511Z,3.20
2023-05-07T12:42:57.695Z,3.38
2023-05-07T12:46:05.803Z,2.97
2023-05-07T12:49:11.409Z,2.85
2023-05-07T12:52:15.980Z,3.10
2023-05-07T12:55:20.183Z,2.70
2023-05-07T12:58:28.295Z,2.80
2023-05-07T13:01:32.981Z,3.08
2023-05-07T13:04:38.534Z,2.70
2023-05-07T13:07:43.004Z,2.95
2023-05-07T13:10:46.685Z,2.80
2023-05-07T13:13:50.538Z,2.63
2023-05-07T13:16:54.255Z,2.90
2023-05-07T13:19:59.342Z,2.85
2023-05-07T13:23:05.515Z,2.72
2023-05-07T13:26:22.480Z,2.88
2023-05-07T13:29:31.582Z,3.25
2023-05-07T13:32:35.462Z,2.80
2023-05-07T13:35:41.085Z,2.90
2023-05-07T13:38:44.973Z,3.10
2023-05-07T13:41:48.709Z,2.67
2023-05-07T13:44:52.591Z,2.28
2023-05-07T13:47:57.809Z,2.22
2023-05-07T13:51:03.017Z,2.30
2023-05-07T13:54:06.952Z,2.42
2023-05-07T13:57:10.817Z,2.10
2023-05-07T14:00:15.723Z,2.30
2023-05-07T14:03:21.024Z,2.60
2023-05-07T14:06:26.400Z,2.28
2023-05-07T14:09:30.210Z,2.63
2023-05-07T14:12:34.436Z,2.10
2023-05-07T14:15:38.726Z,2.17
2023-05-07T14:18:42.507Z,2.08
2023-05-07T14:21:47.718Z,2.17
2023-05-07T14:25:05.403Z,1.92
2023-05-07T14:28:16.043Z,2.00
2023-05-07T14:31:19.851Z,2.10
2023-05-07T14:34:23.777Z,2.00
2023-05-07T14:37:29.505Z,2.10
2023-05-07T14:40:33.458Z,2.40
2023-05-07T14:43:37.205Z,2.30
2023-05-07T14:46:41.128Z,2.20
2023-05-07T14:49:44.807Z,2.03
2023-05-07T14:52:50.068Z,2.55
2023-05-07T14:55:53.926Z,1.83
2023-05-07T14:58:57.746Z,1.98
2023-05-07T15:02:03.783Z,2.03
2023-05-07T15:05:10.204Z,2.50
2023-05-07T15:08:15.616Z,2.40
2023-05-07T15:11:19.476Z,2.28
2023-05-07T15:14:23.644Z,2.00
2023-05-07T15:17:27.610Z,2.30
2023-05-07T15:20:31.612Z,2.10
2023-05-07T15:23:36.953Z,3.10
2023-05-07T15:26:40.472Z,2.20
2023-05-07T15:29:44.339Z,1.70
2023-05-07T15:32:48.715Z,1.90
2023-05-07T15:35:52.563Z,2.15
2023-05-07T15:38:57.771Z,1.90
2023-05-07T15:42:02.511Z,1.80
2023-05-07T15:45:07.285Z,2.30
2023-05-07T15:48:12.019Z,2.55
2023-05-07T15:51:15.881Z,1.73
2023-05-07T15:54:21.432Z,2.05
2023-05-07T15:57:25.556Z,2.05
2023-05-07T16:00:29.689Z,2.05
2023-05-07T16:03:34.407Z,2.25
2023-05-07T16:06:38.283Z,1.77
2023-05-07T16:09:43.381Z,2.17
2023-05-07T16:12:47.183Z,2.20
2023-05-07T16:15:50.995Z,2.80
2023-05-07T16:18:54.804Z,2.10
2023-05-07T16:21:58.879Z,1.80
2023-05-07T16:25:05.522Z,2.08
2023-05-07T16:28:09.328Z,2.33
2023-05-07T16:31:13.231Z,2.60
2023-05-07T16:34:17.009Z,2.08
2023-05-07T16:37:21.722Z,2.25
2023-05-07T16:40:27.349Z,2.70
2023-05-07T16:43:31.207Z,2.10
2023-05-07T16:46:35.033Z,2.17
2023-05-07T16:49:38.891Z,2.05
2023-05-07T16:52:42.667Z,2.47
2023-05-07T16:55:47.981Z,2.17
2023-05-07T16:58:51.813Z,2.25
2023-05-07T17:01:56.939Z,2.85
2023-05-07T17:05:01.570Z,2.63
2023-05-07T17:08:05.699Z,2.55
2023-05-07T17:11:10.977Z,2.42
2023-05-07T17:14:14.771Z,2.35
2023-05-07T17:17:18.761Z,2.58
2023-05-07T17:20:23.918Z,2.53
2023-05-07T17:23:27.821Z,2.42
2023-05-07T17:26:35.504Z,2.28
2023-05-07T17:29:39.303Z,2.50
2023-05-07T17:32:43.010Z,2.15
2023-05-07T17:35:46.823Z,2.30
2023-05-07T17:38:50.592Z,2.15
2023-05-07T17:41:55.860Z,2.17
2023-05-07T17:44:59.721Z,2.15
2023-05-07T17:48:03.907Z,2.35
2023-05-07T17:51:07.829Z,3.33
2023-05-07T17:54:11.854Z,3.10
2023-05-07T17:57:17.093Z,2.50
2023-05-07T18:00:21.178Z,2.40
2023-05-07T18:03:25.794Z,2.78
2023-05-07T18:06:29.632Z,2.50
2023-05-07T18:09:33.443Z,3.15
2023-05-07T18:12:38.687Z,2.97
2023-05-07T18:15:42.569Z,2.17
2023-05-07T18:18:47.190Z,2.83
2023-05-07T18:21:51.185Z,2.38
2023-05-07T18:24:56.188Z,3.08
2023-05-07T18:28:01.430Z,2.38
2023-05-07T18:31:06.311Z,2.60
2023-05-07T18:34:10.572Z,2.70
2023-05-07T18:37:14.298Z,2.45
2023-05-07T18:40:18.416Z,2.38
2023-05-07T18:43:23.600Z,3.13
2023-05-07T18:46:29.521Z,2.97
2023-05-07T18:49:33.350Z,3.00
2023-05-07T18:52:37.445Z,2.80
2023-05-07T18:55:41.581Z,2.95
2023-05-07T18:58:46.769Z,3.30
2023-05-07T19:01:50.684Z,4.40
2023-05-07T19:04:54.567Z,4.28
2023-05-07T19:07:58.449Z,3.70
2023-05-07T19:11:02.313Z,4.30
2023-05-07T19:14:07.619Z,4.57
2023-05-07T19:17:13.348Z,5.22
2023-05-07T19:20:17.125Z,4.90
2023-05-07T19:23:21.235Z,5.15
2023-05-07T19:26:25.241Z,4.85
2023-05-07T19:29:30.452Z,4.72
2023-05-07T19:32:34.292Z,3.88
2023-05-07T19:35:38.404Z,4.25
2023-05-07T19:38:42.132Z,3.30
2023-05-07T19:41:46.186Z,3.53
2023-05-07T19:44:51.517Z,4.10
2023-05-07T19:47:55.229Z,5.65
2023-05-07T19:51:00.168Z,5.40
2023-05-07T19:54:04.180Z,5.32
2023-05-07T19:57:08.022Z,4.72
2023-05-07T20:00:15.016Z,4.82
2023-05-07T20:03:19.516Z,4.03
2023-05-07T20:06:24.274Z,3.75
2023-05-07T20:09:28.024Z,3.03
2023-05-07T20:12:31.784Z,3.33
2023-05-07T20:15:38.100Z,2.90
2023-05-07T20:18:42.085Z,3.60
2023-05-07T20:21:46.187Z,3.28
2023-05-07T20:24:49.934Z,3.17
2023-05-07T20:27:53.956Z,2.78
2023-05-07T20:30:59.188Z,3.10
2023-05-07T20:34:03.271Z,3.20
2023-05-07T20:37:07.030Z,3.00
2023-05-07T20:40:11.878Z,3.27
2023-05-07T20:43:15.903Z,3.20
2023-05-07T20:46:23.394Z,2.87
2023-05-07T20:49:27.442Z,2.60
2023-05-07T20:52:31.229Z,3.70
2023-05-07T20:55:35.058Z,4.00
2023-05-07T20:58:38.814Z,4.57
2023-05-07T21:01:44.160Z,6.77
2023-05-07T21:04:48.040Z,7.23
2023-05-07T21:07:51.847Z,7.53
2023-05-07T21:10:55.998Z,7.13
2023-05-07T21:13:59.878Z,5.90
2023-05-07T21:17:07.352Z,6.03
2023-05-07T21:20:11.877Z,6.00
2023-05-07T21:23:15.877Z,5.20
2023-05-07T21:26:20.526Z,4.80
2023-05-07T21:29:24.953Z,4.13
2023-05-07T21:32:30.196Z,4.40
2023-05-07T21:35:34.026Z,3.37
2023-05-07T21:38:38.778Z,3.17
2023-05-07T21:41:42.593Z,2.97
2023-05-07T21:44:46.525Z,3.10
2023-05-07T21:47:51.787Z,3.47
2023-05-07T21:51:02.345Z,3.00
2023-05-07T21:54:07.065Z,2.67
2023-05-07T21:57:11.215Z,3.17
2023-05-07T22:00:16.592Z,2.70
2023-05-07T22:03:21.986Z,2.57
2023-05-07T22:06:26.563Z,2.50
2023-05-07T22:09:30.356Z,2.43
2023-05-07T22:12:34.161Z,2.43
2023-05-07T22:15:49.138Z,2.30
2023-05-07T22:19:01.694Z,2.07
2023-05-07T22:22:05.579Z,2.10
2023-05-07T22:25:10.844Z,2.30
2023-05-07T22:28:14.573Z,2.67
2023-05-07T22:31:18.401Z,2.47
2023-05-07T22:34:23.754Z,2.60
2023-05-07T22:37:27.726Z,2.93
2023-05-07T22:40:31.492Z,2.43
2023-05-07T22:43:35.493Z,2.70
2023-05-07T22:46:39.299Z,2.73
2023-05-07T22:49:44.381Z,2.80
2023-05-07T22:52:48.011Z,2.50
2023-05-07T22:55:51.859Z,2.90
2023-05-07T22:58:55.577Z,3.27
2023-05-07T23:01:59.674Z,2.57
2023-05-07T23:05:05.049Z,2.90
2023-05-07T23:08:08.914Z,2.87
2023-05-07T23:11:13.075Z,2.73
2023-05-07T23:14:16.850Z,2.30
2023-05-07T23:17:20.702Z,2.57
2023-05-07T23:20:25.903Z,2.67
2023-05-07T23:23:33.926Z,2.63
2023-05-07T23:26:37.760Z,2.50
2023-05-07T23:29:41.477Z,2.77
2023-05-07T23:32:45.151Z,2.53
2023-05-07T23:35:50.292Z,2.00
2023-05-07T23:38:53.942Z,2.40
2023-05-07T23:41:57.596Z,2.40
2023-05-07T23:45:01.452Z,2.83
2023-05-07T23:48:05.320Z,2.80
2023-05-07T23:51:10.616Z,3.33
2023-05-07T23:54:14.303Z,2.60
2023-05-07T23:57:17.979Z,3.03
